Terminal Aerodrome Forecast
Issued by NWS Pocatello, ID

Home | Current Version | Previous Version | Text Only | Print | Product List | Glossary On
Versions: 1 2 3 4 5 6 7 8 9 10 11 12 13 14 15 16 17 18 19
000
FTUS45 KPIH 152320
TAFPIH
TAF
KPIH 152320Z 1600/1624 02005KT P6SM FEW003 SCT110 SCT160
     FM160400 VRB04KT P6SM SCT015 BKN100 OVC160
     FM161000 20006KT 2SM -SN BR OVC008
     FM161400 22006KT 2SM -SN BR OVC004
     FM162100 28008KT P6SM VCSH BKN025 OVC050=

USA.gov is the U.S. government's official web portal to all federal, state and local government web resources and services.